Water Valley, MS (38965)

5:48 PM CDT on May 04, 2015 (GMT -0500)
Town of Taylor | | Change Station
CLOSE
Current Station
Personal Weather Station
Location: Oxford, MS
Elevation: 282 ft
Nearby Weather Stations

Elev 282 ft 34.27 °N, 89.58 °W | Updated 5 minutes ago

Clear
Clear
83.8 °F
Feels Like 84 °F
N
2.2
Wind Variable Wind from SE

Today
High -- | Low -- °F
--% Chance of Precip.
Yesterday
High -- | Low -- °F
Precip. -- in
6:06 AM 7:44 PM
Full, 99% visible
Pressure 30.18 in
Visibility 10.0 miles
Clouds Few 4500 ft
Few 6000 ft
Heat Index 84 °F
Dew Point 59 °F
Humidity 43%
Rainfall 0.00 in
Snow Depth Not available.
UV 3 out of 12
Pollen 7.30 out of 12
Air Quality Not available.
Flu Activity No Activity
METAR KUOX 042155Z AUTO 14007KT 10SM -RA FEW045 FEW060 27/12 A3018 RMK AO2

More Conditions Fewer Conditions

Pressure 30.18 in
Visibility 10.0 miles
Clouds Few 4500 ft
Few 6000 ft
Heat Index 84 °F
Dew Point 59 °F
Humidity 43%
Rainfall 0.00 in
Snow Depth Not available.
UV 3 out of 12
Pollen 7.30 out of 12
Air Quality Not available.
Flu Activity No Activity
METAR KUOX 042155Z AUTO 14007KT 10SM -RA FEW045 FEW060 27/12 A3018 RMK AO2

More Conditions Fewer Conditions

Nepal has a long way to go to dig out and rebuild from a devastating earthquake. We have teamed up with several charities and organizations to make contributing to the relief effort as easy as possible.
How you can help: Portlight Strategies | Red Cross

10-Day Weather Forecast

Almanac

Astronomy

May. 04, 2015 Rise Set
Actual Time
Civil Twilight
Nautical Twilight
Astronomical Twilight
Moon
Length of Visible Light
Length of Day
Tomorrow will be .
, % of the Moon is Illuminated

Today's Extremes

State Highs State Lows

Community

WunderPhotos

Upload Photos

1,818,720 photos uploaded!

WunderBlogs® & News

Nearby

Air Quality

  Air Quality AQ Index Pollutant
Not available.

Snow Depth

Station Depth Elevation

Earthquake Activity

City Distance Mag. Time & Date
Minimum magnitude displayed is 2.5.

Coastal Water Temperatures

Place Temperature

Stations

Nearby Weather Stations

Station Location Temp. Windchill Dew Point Humidity Wind Precip. Elev Updated Type